KLAS/LAS METAR and TAF weather

Enter ICAO airport designator
Station Type Date Time Source
KLAS METAR 2021/01/22 06:56 UTC NOAA

KLAS 220656Z 00000KT 10SM CLR 11/01 A2997 RMK AO2 SLP141 T01110011


Station Type Date Time Source
KLAS Decoded METAR 2021/01/22 06:56 UTC NOAA

MCCARRAN INTERNATIONAL AIRPORT , NV, United States (KLAS) 36-07N 115-16W 636M
Jan 22, 2021 - 01:56 AM EST / 2021.01.22 0656 UTC
Wind: Calm:0
Visibility: 10 mile(s):0
Sky conditions: clear
Temperature: 52.0 F (11.1 C)
Dew Point: 34.0 F (1.1 C)
Relative Humidity: 50%
Pressure (altimeter): 29.97 in. Hg (1014 hPa)
ob: KLAS 220656Z 00000KT 10SM CLR 11/01 A2997 RMK AO2 SLP141 T01110011
cycle: 7

Station Type Date Time Source
KLAS TAF 2021/01/22 06:46 UTC NOAA

TAF KLAS 220544Z 2206/2312 21007KT P6SM FEW250
FM221000 18005KT P6SM BKN250
FM221800 17010G18KT P6SM SCT120 BKN250
FM222200 19015G25KT P6SM VCSH SCT080 BKN120
FM230100 19015G25KT P6SM -SHRA SCT060 BKN090 PROB30 2301/2305 -TSRA BKN050CB
FM230600 21012KT P6SM FEW060

Example: see airport list